首页
METAR-TAF:

METAR-TAF

机场 :

費爾班克斯Eielson, 阿拉斯加州, 美国

纬度: 64-39N, 经度: 147-06W, 海拔: 167米

当前天气观测

该预报发布于1小时和8分钟前的23:55 UTC
风速4节,风向西
温度 19°C
湿度 15%
气压 1009 hPa
能見度: 16.1公里
少量云层高于7000英尺
少量云层高于20000英尺

METAR: PAEI 202355Z 28004KT 10SM FEW070 FEW200 19/M08 A2981 RMK AO2A SLP100 T01881084 10195 20132 57012 $

时间: 17:03 (01:03 UTC)

预报

该预报发布于3小时和3分钟前的22:00 UTC
预报有效从20日的 22点(UTC)到 22日的 04点(UTC)
风速6节,风向多变
能见度10公里或以上
少量云层高于20000英尺

TAF: PAEI 202200Z 2022/2204 VRB06KT 9999 FEW200 QNH2983INS TX19/2100Z TN03/2112Z

超过4000个机场的气象观测和天气预报(METAR&TAF报告)。

可查询的气象台以黄色和红色小点在地图上表示。

将鼠标移到小点上方,可查看气象台名称。

然后点击查看天气观测和预报。

如需切换地图:点击带黑十字的绿色按钮放大地图;点击带横线的绿色按钮缩小地图;或者点击绿色箭头查看邻近地区的地图。


METAR-TAF: